createdAt,value
2022-12-19T00:01:01.947Z,5.48
2022-12-19T00:03:28.684Z,5.47
2022-12-19T00:05:55.437Z,5.49
2022-12-19T00:08:22.099Z,5.47
2022-12-19T00:11:00.256Z,5.57
2022-12-19T00:13:26.917Z,5.69
2022-12-19T00:15:54.895Z,5.68
2022-12-19T00:18:21.590Z,5.60
2022-12-19T00:20:58.590Z,5.57
2022-12-19T00:23:25.258Z,5.51
2022-12-19T00:25:51.923Z,5.58
2022-12-19T00:28:18.878Z,5.58
2022-12-19T00:30:46.917Z,5.54
2022-12-19T00:33:13.554Z,5.57
2022-12-19T00:35:40.207Z,5.55
2022-12-19T00:38:06.841Z,5.60
2022-12-19T00:40:33.473Z,5.62
2022-12-19T00:43:00.095Z,5.58
2022-12-19T00:45:27.366Z,5.62
2022-12-19T00:47:55.822Z,5.68
2022-12-19T00:50:22.458Z,5.68
2022-12-19T00:52:49.096Z,5.72
2022-12-19T00:55:18.721Z,5.70
2022-12-19T00:57:46.405Z,5.70
2022-12-19T01:00:13.545Z,5.70
2022-12-19T01:02:40.301Z,5.70
2022-12-19T01:05:07.238Z,5.73
2022-12-19T01:07:33.885Z,5.85
2022-12-19T01:10:00.532Z,5.85
2022-12-19T01:12:27.169Z,5.81
2022-12-19T01:14:55.199Z,5.96
2022-12-19T01:17:30.778Z,6.01
2022-12-19T01:19:57.415Z,5.89
2022-12-19T01:22:24.035Z,5.93
2022-12-19T01:24:50.669Z,5.85
2022-12-19T01:27:17.363Z,5.82
2022-12-19T01:29:52.554Z,5.73
2022-12-19T01:32:20.484Z,5.77
2022-12-19T01:34:47.137Z,5.95
2022-12-19T01:37:13.784Z,5.95
2022-12-19T01:39:40.466Z,5.90
2022-12-19T01:42:19.586Z,5.92
2022-12-19T01:45:05.202Z,5.96
2022-12-19T01:47:31.873Z,5.92
2022-12-19T01:49:58.493Z,5.90
2022-12-19T01:52:25.143Z,5.95
2022-12-19T01:54:51.876Z,6.02
2022-12-19T01:57:18.532Z,5.95
2022-12-19T01:59:48.330Z,5.93
2022-12-19T02:02:35.457Z,5.92
2022-12-19T02:05:02.215Z,5.70
2022-12-19T02:07:28.856Z,5.46
2022-12-19T02:09:57.335Z,5.34
2022-12-19T02:12:24.623Z,5.27
2022-12-19T02:14:51.510Z,5.23
2022-12-19T02:17:35.353Z,5.25
2022-12-19T02:20:22.624Z,5.34
2022-12-19T02:23:07.980Z,5.44
2022-12-19T02:25:42.556Z,5.47
2022-12-19T02:28:45.815Z,5.47
2022-12-19T02:31:24.658Z,5.62
2022-12-19T02:34:30.510Z,5.63
2022-12-19T02:37:11.786Z,5.61
2022-12-19T02:39:52.721Z,5.64
2022-12-19T02:42:32.078Z,5.59
2022-12-19T02:44:58.954Z,5.57
2022-12-19T02:47:25.604Z,5.49
2022-12-19T02:49:52.235Z,5.46
2022-12-19T02:52:18.753Z,5.46
2022-12-19T02:54:45.831Z,5.39
2022-12-19T02:57:20.031Z,5.48
2022-12-19T03:00:02.839Z,5.46
2022-12-19T03:02:48.511Z,5.49
2022-12-19T03:05:59.393Z,5.70
2022-12-19T03:08:45.998Z,5.59
2022-12-19T03:11:13.295Z,5.48
2022-12-19T03:13:56.499Z,5.48
2022-12-19T03:16:23.246Z,5.52
2022-12-19T03:18:49.966Z,5.50
2022-12-19T03:21:20.786Z,5.49
2022-12-19T03:23:47.461Z,5.45
2022-12-19T03:26:18.990Z,5.49
2022-12-19T03:28:52.792Z,5.48
2022-12-19T03:31:20.837Z,5.46
2022-12-19T03:33:48.127Z,5.43
2022-12-19T03:36:17.414Z,5.49
2022-12-19T03:38:44.070Z,5.57
2022-12-19T03:41:11.007Z,5.48
2022-12-19T03:43:37.649Z,5.55
2022-12-19T03:46:18.820Z,5.51
2022-12-19T03:48:47.388Z,5.50
2022-12-19T03:51:35.732Z,5.45
2022-12-19T03:54:24.448Z,5.49
2022-12-19T03:57:09.528Z,5.50
2022-12-19T03:59:51.108Z,5.53
2022-12-19T04:02:18.455Z,5.46
2022-12-19T04:04:47.019Z,5.44
2022-12-19T04:07:13.745Z,5.35
2022-12-19T04:09:41.681Z,5.32
2022-12-19T04:12:11.387Z,5.29
2022-12-19T04:14:38.024Z,5.24
2022-12-19T04:17:07.498Z,5.21
2022-12-19T04:20:02.990Z,5.38
2022-12-19T04:22:32.307Z,5.32
2022-12-19T04:24:59.262Z,5.30
2022-12-19T04:27:25.922Z,5.35
2022-12-19T04:29:54.640Z,5.34
2022-12-19T04:32:21.302Z,5.40
2022-12-19T04:34:47.949Z,5.46
2022-12-19T04:37:14.585Z,5.34
2022-12-19T04:39:41.222Z,5.32
2022-12-19T04:42:07.842Z,5.40
2022-12-19T04:44:34.487Z,5.37
2022-12-19T04:47:01.126Z,5.37
2022-12-19T04:49:27.744Z,5.38
2022-12-19T04:51:54.468Z,5.37
2022-12-19T04:54:21.729Z,5.37
2022-12-19T04:56:48.367Z,5.51
2022-12-19T04:59:14.976Z,5.30
2022-12-19T05:01:41.741Z,5.32
2022-12-19T05:04:08.515Z,5.22
2022-12-19T05:06:35.190Z,5.14
2022-12-19T05:09:01.847Z,5.16
2022-12-19T05:11:28.500Z,5.34
2022-12-19T05:13:55.157Z,5.30
2022-12-19T05:16:21.879Z,5.25
2022-12-19T05:18:48.537Z,5.21
2022-12-19T05:21:15.180Z,5.25
2022-12-19T05:23:41.841Z,5.20
2022-12-19T05:26:08.479Z,5.18
2022-12-19T05:28:35.132Z,5.23
2022-12-19T05:31:09.185Z,5.25
2022-12-19T05:33:36.148Z,5.24
2022-12-19T05:36:02.767Z,5.28
2022-12-19T05:38:29.419Z,5.13
2022-12-19T05:40:56.061Z,5.07
2022-12-19T05:43:22.837Z,5.18
2022-12-19T05:45:49.626Z,5.07
2022-12-19T05:48:16.280Z,5.05
2022-12-19T05:50:47.547Z,4.99
2022-12-19T05:53:14.164Z,5.00
2022-12-19T05:55:41.081Z,4.93
2022-12-19T05:58:07.729Z,4.87
2022-12-19T06:00:34.362Z,4.86
2022-12-19T06:03:01.052Z,4.82
2022-12-19T06:05:27.760Z,4.87
2022-12-19T06:07:54.387Z,4.97
2022-12-19T06:10:21.058Z,5.01
2022-12-19T06:12:47.730Z,4.90
2022-12-19T06:15:14.373Z,4.95
2022-12-19T06:17:41.188Z,4.93
2022-12-19T06:20:08.216Z,4.86
2022-12-19T06:22:34.896Z,4.81
2022-12-19T06:25:01.552Z,4.77
2022-12-19T06:27:28.177Z,4.75
2022-12-19T06:29:54.809Z,4.80
2022-12-19T06:32:21.476Z,4.79
2022-12-19T06:35:03.667Z,4.78
2022-12-19T06:37:30.950Z,4.80
2022-12-19T06:39:57.608Z,4.90
2022-12-19T06:42:24.437Z,4.78
2022-12-19T06:44:56.238Z,4.73
2022-12-19T06:47:23.176Z,4.73
2022-12-19T06:49:49.837Z,4.69
2022-12-19T06:52:17.037Z,4.81
2022-12-19T06:54:43.674Z,4.82
2022-12-19T06:57:10.313Z,4.66
2022-12-19T06:59:37.319Z,4.61
2022-12-19T07:02:18.491Z,4.50
2022-12-19T07:04:52.780Z,4.52
2022-12-19T07:07:19.503Z,4.61
2022-12-19T07:09:46.152Z,4.61
2022-12-19T07:12:12.780Z,4.60
2022-12-19T07:14:39.382Z,4.61
2022-12-19T07:17:06.037Z,4.60
2022-12-19T07:19:32.704Z,4.54
2022-12-19T07:21:59.798Z,4.53
2022-12-19T07:24:26.452Z,4.55
2022-12-19T07:26:53.105Z,4.60
2022-12-19T07:29:19.748Z,4.67
2022-12-19T07:31:46.491Z,4.76
2022-12-19T07:34:13.126Z,4.68
2022-12-19T07:36:39.765Z,4.68
2022-12-19T07:39:06.417Z,4.70
2022-12-19T07:41:35.653Z,4.70
2022-12-19T07:44:02.858Z,4.77
2022-12-19T07:46:30.002Z,4.84
2022-12-19T07:48:56.629Z,4.95
2022-12-19T07:51:23.280Z,4.97
2022-12-19T07:53:49.915Z,5.07
2022-12-19T07:56:16.565Z,5.06
2022-12-19T07:58:43.339Z,5.14
2022-12-19T08:01:10.117Z,5.25
2022-12-19T08:03:36.905Z,5.51
2022-12-19T08:06:04.858Z,5.57
2022-12-19T08:08:31.569Z,5.67
2022-12-19T08:11:08.232Z,5.86
2022-12-19T08:13:39.720Z,6.13
2022-12-19T08:16:06.656Z,6.28
2022-12-19T08:18:33.296Z,7.01
2022-12-19T08:20:59.949Z,7.68
2022-12-19T08:23:26.653Z,7.85
2022-12-19T08:26:03.396Z,8.46
2022-12-19T08:28:30.967Z,8.87
2022-12-19T08:30:57.683Z,8.65
2022-12-19T08:33:24.359Z,8.44
2022-12-19T08:35:51.016Z,8.35
2022-12-19T08:38:17.710Z,8.53
2022-12-19T08:40:47.339Z,8.43
2022-12-19T08:43:14.364Z,8.82
2022-12-19T08:45:41.069Z,9.14
2022-12-19T08:48:07.745Z,8.79
2022-12-19T08:50:34.399Z,8.65
2022-12-19T08:53:01.098Z,8.50
2022-12-19T08:55:27.769Z,8.44
2022-12-19T08:57:56.415Z,8.09
2022-12-19T09:00:23.106Z,7.86
2022-12-19T09:02:51.087Z,7.85
2022-12-19T09:06:01.028Z,7.77
2022-12-19T09:08:04.704Z,7.85
2022-12-19T09:10:31.384Z,7.65
2022-12-19T09:12:58.487Z,7.46
2022-12-19T09:15:25.147Z,7.33
2022-12-19T09:17:51.820Z,7.24
2022-12-19T09:20:23.174Z,7.15
2022-12-19T09:22:50.414Z,6.87
2022-12-19T09:25:17.098Z,6.75
2022-12-19T09:28:17.970Z,6.86
2022-12-19T09:30:30.432Z,6.86
2022-12-19T09:32:58.524Z,6.74
2022-12-19T09:35:30.040Z,6.74
2022-12-19T09:38:00.356Z,6.97
2022-12-19T09:40:28.052Z,6.99
2022-12-19T09:43:41.404Z,7.28
2022-12-19T09:46:18.719Z,7.38
2022-12-19T09:48:54.200Z,7.53
2022-12-19T09:51:57.347Z,7.80
2022-12-19T09:54:27.971Z,7.95
2022-12-19T09:57:02.863Z,8.14
2022-12-19T09:59:45.968Z,8.44
2022-12-19T10:02:33.868Z,8.70
2022-12-19T10:05:41.550Z,8.76
2022-12-19T10:08:09.622Z,8.86
2022-12-19T10:12:36.203Z,8.96
2022-12-19T10:14:22.134Z,9.11
2022-12-19T10:17:23.255Z,9.08
2022-12-19T10:19:50.846Z,9.12
2022-12-19T10:22:29.656Z,9.23
2022-12-19T10:25:08.448Z,9.22
2022-12-19T10:27:59.287Z,9.27
2022-12-19T10:30:27.949Z,9.29
2022-12-19T10:33:06.960Z,9.28
2022-12-19T10:35:41.420Z,9.23
2022-12-19T10:38:11.006Z,9.23
2022-12-19T10:40:49.885Z,9.24
2022-12-19T10:43:33.684Z,9.30
2022-12-19T10:46:04.045Z,9.37
2022-12-19T10:48:31.626Z,9.36
2022-12-19T10:50:58.798Z,9.38
2022-12-19T10:53:32.698Z,9.32
2022-12-19T10:56:03.343Z,9.30
2022-12-19T10:58:35.214Z,9.29
2022-12-19T11:01:15.984Z,9.29
2022-12-19T11:03:46.594Z,9.23
2022-12-19T11:06:35.260Z,9.15
2022-12-19T11:09:20.527Z,9.19
2022-12-19T11:14:33.073Z,9.21
2022-12-19T11:19:15.078Z,9.25
2022-12-19T11:24:39.487Z,9.24
2022-12-19T11:29:26.190Z,9.25
2022-12-19T11:29:37.049Z,9.32
2022-12-19T11:30:46.077Z,9.35
2022-12-19T11:30:59.414Z,9.25
2022-12-19T11:34:22.525Z,9.26
2022-12-19T11:37:00.294Z,9.32
2022-12-19T11:39:50.069Z,9.37
2022-12-19T11:42:25.915Z,9.34
2022-12-19T11:45:14.992Z,9.39
2022-12-19T11:47:48.568Z,9.37
2022-12-19T11:50:18.543Z,9.38
2022-12-19T11:53:26.719Z,9.52
2022-12-19T11:55:56.075Z,9.58
2022-12-19T11:58:22.861Z,9.50
2022-12-19T12:01:02.105Z,9.54
2022-12-19T12:03:54.746Z,9.49
2022-12-19T12:06:34.380Z,9.44
2022-12-19T12:13:22.354Z,9.50
2022-12-19T12:21:00.189Z,9.49
2022-12-19T12:27:31.035Z,9.47
2022-12-19T12:30:59.799Z,9.50
2022-12-19T12:31:13.349Z,9.53
2022-12-19T12:31:15.365Z,9.48
2022-12-19T12:31:49.894Z,9.55
2022-12-19T12:31:52.581Z,9.58
2022-12-19T12:35:42.533Z,9.53
2022-12-19T12:40:00.483Z,9.54
2022-12-19T12:42:45.769Z,9.57
2022-12-19T12:45:19.668Z,9.47
2022-12-19T12:47:48.113Z,9.41
2022-12-19T12:50:15.987Z,9.41
2022-12-19T12:52:44.353Z,9.45
2022-12-19T12:55:31.244Z,9.39
2022-12-19T12:57:58.007Z,9.32
2022-12-19T13:00:31.829Z,9.24
2022-12-19T13:03:11.439Z,9.18
2022-12-19T13:05:51.516Z,9.16
2022-12-19T13:08:34.170Z,9.15
2022-12-19T13:11:02.630Z,9.18
2022-12-19T13:13:58.689Z,9.31
2022-12-19T13:16:43.745Z,9.52
2022-12-19T13:19:25.861Z,9.48
2022-12-19T13:22:03.784Z,9.65
2022-12-19T13:24:49.154Z,9.67
2022-12-19T13:27:18.529Z,9.68
2022-12-19T13:30:00.312Z,9.69
2022-12-19T13:32:27.835Z,9.59
2022-12-19T13:35:56.523Z,9.61
2022-12-19T13:40:01.196Z,9.68
2022-12-19T13:41:00.439Z,9.63
2022-12-19T13:43:47.218Z,9.58
2022-12-19T13:46:36.954Z,9.46
2022-12-19T13:49:09.765Z,9.42
2022-12-19T13:51:47.212Z,9.43
2022-12-19T13:54:25.978Z,9.43
2022-12-19T13:56:53.256Z,9.43
2022-12-19T13:59:20.826Z,9.42
2022-12-19T14:01:47.596Z,9.45
2022-12-19T14:04:30.621Z,9.42
2022-12-19T14:07:02.140Z,9.40
2022-12-19T14:11:28.300Z,9.47
2022-12-19T14:13:56.536Z,9.49
2022-12-19T14:15:27.360Z,9.53
2022-12-19T14:17:54.112Z,9.59
2022-12-19T14:22:01.896Z,9.66
2022-12-19T14:23:12.552Z,9.84
2022-12-19T14:28:15.730Z,9.96
2022-12-19T14:29:03.302Z,9.88
2022-12-19T14:31:30.047Z,9.88
2022-12-19T14:34:43.386Z,9.93
2022-12-19T14:36:51.987Z,9.99
2022-12-19T14:39:24.342Z,9.90
2022-12-19T14:42:02.144Z,9.85
2022-12-19T14:52:08.147Z,9.77
2022-12-19T14:54:12.864Z,9.71
2022-12-19T14:54:16.335Z,9.74
2022-12-19T14:54:26.802Z,9.71
2022-12-19T14:59:01.267Z,9.86
2022-12-19T15:01:29.976Z,9.73
2022-12-19T15:04:49.245Z,9.78
2022-12-19T15:07:08.551Z,9.78
2022-12-19T15:10:59.935Z,9.62
2022-12-19T15:14:48.756Z,9.51
2022-12-19T15:15:44.921Z,9.43
2022-12-19T15:18:24.694Z,9.25
2022-12-19T15:20:51.956Z,9.10
2022-12-19T15:23:22.430Z,9.18
2022-12-19T15:26:06.974Z,9.06
2022-12-19T15:28:46.609Z,8.94
2022-12-19T15:31:33.244Z,8.83
2022-12-19T15:34:32.833Z,8.78
2022-12-19T15:36:46.948Z,8.86
2022-12-19T15:39:13.723Z,8.77
2022-12-19T15:41:40.363Z,8.55
2022-12-19T15:44:14.322Z,8.45
2022-12-19T15:46:48.098Z,8.42
2022-12-19T15:49:19.312Z,8.25
2022-12-19T15:51:46.243Z,8.30
2022-12-19T15:54:47.218Z,8.24
2022-12-19T15:56:59.577Z,8.05
2022-12-19T15:59:37.430Z,8.07
2022-12-19T16:02:13.787Z,8.02
2022-12-19T16:04:40.659Z,7.93
2022-12-19T16:07:17.805Z,7.81
2022-12-19T16:09:44.927Z,7.90
2022-12-19T16:12:36.677Z,8.02
2022-12-19T16:15:03.901Z,7.94
2022-12-19T16:17:31.901Z,7.85
2022-12-19T16:19:58.612Z,7.76
2022-12-19T16:22:26.460Z,7.66
2022-12-19T16:24:54.228Z,7.65
2022-12-19T16:27:30.485Z,7.56
2022-12-19T16:29:58.976Z,7.58
2022-12-19T16:32:25.860Z,7.52
2022-12-19T16:34:52.888Z,7.48
2022-12-19T16:37:19.602Z,7.54
2022-12-19T16:39:46.294Z,7.43
2022-12-19T16:42:16.220Z,7.35
2022-12-19T16:44:43.572Z,7.26
2022-12-19T16:47:13.955Z,7.27
2022-12-19T16:49:40.655Z,7.26
2022-12-19T16:52:07.359Z,7.29
2022-12-19T16:54:34.113Z,7.32
2022-12-19T16:57:00.759Z,7.36
2022-12-19T16:59:31.420Z,7.42
2022-12-19T17:01:58.166Z,7.38
2022-12-19T17:04:25.072Z,7.35
2022-12-19T17:06:52.459Z,7.28
2022-12-19T17:09:22.855Z,7.21
2022-12-19T17:12:09.677Z,7.31
2022-12-19T17:14:36.342Z,7.50
2022-12-19T17:17:03.091Z,7.42
2022-12-19T17:19:35.013Z,7.45
2022-12-19T17:22:01.685Z,7.35
2022-12-19T17:24:28.305Z,7.38
2022-12-19T17:26:55.058Z,7.52
2022-12-19T17:29:21.684Z,7.50
2022-12-19T17:31:48.361Z,7.43
2022-12-19T17:34:20.264Z,7.42
2022-12-19T17:36:46.932Z,7.39
2022-12-19T17:39:24.122Z,7.37
2022-12-19T17:41:50.878Z,7.30
2022-12-19T17:44:17.615Z,7.26
2022-12-19T17:46:44.948Z,7.18
2022-12-19T17:49:21.354Z,7.04
2022-12-19T17:51:50.067Z,7.02
2022-12-19T17:54:16.726Z,6.94
2022-12-19T17:56:43.598Z,6.94
2022-12-19T17:59:10.309Z,6.93
2022-12-19T18:01:37.118Z,6.98
2022-12-19T18:04:04.023Z,7.16
2022-12-19T18:06:30.659Z,7.11
2022-12-19T18:08:57.301Z,7.13
2022-12-19T18:11:25.378Z,6.97
2022-12-19T18:13:52.857Z,6.90
2022-12-19T18:16:21.742Z,6.94
2022-12-19T18:18:48.445Z,6.97
2022-12-19T18:21:15.965Z,6.96
2022-12-19T18:23:42.720Z,7.07
2022-12-19T18:26:10.483Z,7.02
2022-12-19T18:28:37.210Z,6.96
2022-12-19T18:31:18.148Z,6.97
2022-12-19T18:33:46.318Z,6.94
2022-12-19T18:36:20.232Z,6.91
2022-12-19T18:38:47.556Z,6.90
2022-12-19T18:41:14.600Z,6.93
2022-12-19T18:43:42.538Z,6.97
2022-12-19T18:46:24.805Z,7.04
2022-12-19T18:48:51.547Z,7.04
2022-12-19T18:51:19.701Z,7.03
2022-12-19T18:53:46.879Z,7.17
2022-12-19T18:56:13.621Z,7.15
2022-12-19T18:58:40.474Z,7.10
2022-12-19T19:01:14.709Z,7.25
2022-12-19T19:03:41.495Z,7.32
2022-12-19T19:06:21.041Z,7.32
2022-12-19T19:08:47.740Z,7.28
2022-12-19T19:11:14.649Z,7.18
2022-12-19T19:13:41.912Z,7.32
2022-12-19T19:16:26.698Z,7.06
2022-12-19T19:18:54.531Z,6.92
2022-12-19T19:21:22.535Z,6.90
2022-12-19T19:24:04.079Z,6.88
2022-12-19T19:26:30.738Z,6.92
2022-12-19T19:28:58.529Z,7.03
2022-12-19T19:31:25.651Z,7.04
2022-12-19T19:33:58.021Z,6.97
2022-12-19T19:36:27.547Z,7.12
2022-12-19T19:38:54.768Z,6.98
2022-12-19T19:41:22.284Z,7.06
2022-12-19T19:43:48.937Z,7.01
2022-12-19T19:46:15.626Z,6.91
2022-12-19T19:48:42.313Z,7.02
2022-12-19T19:51:08.984Z,7.07
2022-12-19T19:53:36.156Z,7.05
2022-12-19T19:56:02.859Z,6.94
2022-12-19T19:58:29.503Z,6.92
2022-12-19T20:00:56.154Z,6.87
2022-12-19T20:03:23.856Z,7.01
2022-12-19T20:05:50.851Z,6.79
2022-12-19T20:08:17.531Z,6.74
2022-12-19T20:10:44.241Z,6.74
2022-12-19T20:13:10.897Z,6.75
2022-12-19T20:15:37.612Z,6.71
2022-12-19T20:18:04.314Z,6.78
2022-12-19T20:20:33.064Z,6.94
2022-12-19T20:22:59.764Z,6.98
2022-12-19T20:25:26.539Z,6.97
2022-12-19T20:27:53.213Z,7.02
2022-12-19T20:30:19.876Z,7.10
2022-12-19T20:32:46.516Z,6.83
2022-12-19T20:35:15.000Z,6.76
2022-12-19T20:37:42.275Z,6.91
2022-12-19T20:40:09.562Z,6.76
2022-12-19T20:42:36.168Z,6.71
2022-12-19T20:45:03.074Z,6.72
2022-12-19T20:47:29.707Z,6.67
2022-12-19T20:49:56.364Z,6.70
2022-12-19T20:52:22.989Z,6.91
2022-12-19T20:54:49.609Z,7.07
2022-12-19T20:57:16.277Z,6.88
2022-12-19T20:59:42.913Z,6.85
2022-12-19T21:02:11.538Z,6.73
2022-12-19T21:04:38.769Z,6.71
2022-12-19T21:07:05.524Z,6.68
2022-12-19T21:09:32.428Z,6.82
2022-12-19T21:11:59.105Z,6.86
2022-12-19T21:14:25.782Z,6.84
2022-12-19T21:16:52.420Z,6.81
2022-12-19T21:19:21.440Z,6.98
2022-12-19T21:21:48.124Z,6.94
2022-12-19T21:24:14.804Z,6.93
2022-12-19T21:26:41.459Z,6.79
2022-12-19T21:29:08.174Z,6.69
2022-12-19T21:31:34.904Z,6.56
2022-12-19T21:34:01.706Z,6.47
2022-12-19T21:36:29.168Z,6.52
2022-12-19T21:38:57.197Z,6.56
2022-12-19T21:41:23.886Z,6.50
2022-12-19T21:43:52.158Z,6.57
2022-12-19T21:46:19.725Z,6.47
2022-12-19T21:48:47.812Z,6.57
2022-12-19T21:51:14.626Z,6.54
2022-12-19T21:53:41.319Z,6.49
2022-12-19T21:56:22.431Z,6.47
2022-12-19T21:58:50.680Z,6.32
2022-12-19T22:01:17.432Z,6.41
2022-12-19T22:03:45.248Z,6.61
2022-12-19T22:06:22.390Z,6.59
2022-12-19T22:08:52.258Z,6.54
2022-12-19T22:11:19.870Z,6.39
2022-12-19T22:13:46.993Z,6.31
2022-12-19T22:16:13.713Z,6.25
2022-12-19T22:18:40.371Z,6.21
2022-12-19T22:21:07.841Z,6.13
2022-12-19T22:23:34.551Z,6.04
2022-12-19T22:26:08.864Z,6.00
2022-12-19T22:28:36.988Z,5.94
2022-12-19T22:31:04.328Z,5.92
2022-12-19T22:33:30.997Z,6.02
2022-12-19T22:35:57.682Z,6.15
2022-12-19T22:38:24.486Z,6.16
2022-12-19T22:40:51.477Z,6.20
2022-12-19T22:43:18.132Z,6.06
2022-12-19T22:45:44.791Z,6.15
2022-12-19T22:48:11.482Z,6.34
2022-12-19T22:50:43.649Z,6.44
2022-12-19T22:53:12.842Z,6.45
2022-12-19T22:55:39.925Z,6.41
2022-12-19T22:58:06.725Z,6.23
2022-12-19T23:00:33.357Z,6.28
2022-12-19T23:03:00.246Z,6.33
2022-12-19T23:05:27.453Z,6.23
2022-12-19T23:07:54.121Z,6.04
2022-12-19T23:10:20.790Z,5.93
2022-12-19T23:12:47.492Z,5.94
2022-12-19T23:15:14.252Z,5.93
2022-12-19T23:17:40.984Z,5.92
2022-12-19T23:20:08.533Z,5.99
2022-12-19T23:22:35.168Z,6.20
2022-12-19T23:25:02.041Z,6.25
2022-12-19T23:27:28.708Z,6.23
2022-12-19T23:29:55.327Z,6.41
2022-12-19T23:32:22.014Z,6.43
2022-12-19T23:34:48.712Z,6.39
2022-12-19T23:37:15.355Z,6.35
2022-12-19T23:39:42.010Z,6.40
2022-12-19T23:42:08.944Z,6.58
2022-12-19T23:44:35.864Z,6.46
2022-12-19T23:47:03.765Z,6.38
2022-12-19T23:49:31.608Z,6.47
2022-12-19T23:51:58.250Z,6.61
2022-12-19T23:54:24.867Z,6.57
2022-12-19T23:56:51.507Z,6.71
2022-12-19T23:59:18.167Z,6.63
